sensor_id;sensor_type;location;lat;lon;timestamp;P1;durP1;ratioP1;P2;durP2;ratioP2
66567;SDS011;53422;49.296;6.900;2022-12-07T00:01:25;9.57;;;3.45;;
66567;SDS011;53422;49.296;6.900;2022-12-07T00:03:53;8.63;;;3.50;;
66567;SDS011;53422;49.296;6.900;2022-12-07T00:06:25;9.10;;;3.88;;
66567;SDS011;53422;49.296;6.900;2022-12-07T00:08:51;9.10;;;3.47;;
66567;SDS011;53422;49.296;6.900;2022-12-07T00:11:18;9.20;;;3.75;;
66567;SDS011;53422;49.296;6.900;2022-12-07T00:13:45;9.00;;;4.35;;
66567;SDS011;53422;49.296;6.900;2022-12-07T00:16:13;7.78;;;3.53;;
66567;SDS011;53422;49.296;6.900;2022-12-07T00:18:40;9.80;;;3.95;;
66567;SDS011;53422;49.296;6.900;2022-12-07T00:21:09;8.82;;;3.92;;
66567;SDS011;53422;49.296;6.900;2022-12-07T00:23:40;10.07;;;4.35;;
66567;SDS011;53422;49.296;6.900;2022-12-07T00:26:07;9.88;;;4.35;;
66567;SDS011;53422;49.296;6.900;2022-12-07T00:28:40;8.05;;;3.85;;
66567;SDS011;53422;49.296;6.900;2022-12-07T00:31:10;8.90;;;4.07;;
66567;SDS011;53422;49.296;6.900;2022-12-07T00:33:37;9.05;;;3.40;;
66567;SDS011;53422;49.296;6.900;2022-12-07T00:36:05;10.65;;;4.05;;
66567;SDS011;53422;49.296;6.900;2022-12-07T00:38:34;8.38;;;4.07;;
66567;SDS011;53422;49.296;6.900;2022-12-07T00:41:03;7.97;;;3.63;;
66567;SDS011;53422;49.296;6.900;2022-12-07T00:43:31;8.75;;;4.40;;
66567;SDS011;53422;49.296;6.900;2022-12-07T00:45:56;11.40;;;4.25;;
66567;SDS011;53422;49.296;6.900;2022-12-07T00:48:23;8.73;;;3.40;;
66567;SDS011;53422;49.296;6.900;2022-12-07T00:50:49;8.48;;;3.55;;
66567;SDS011;53422;49.296;6.900;2022-12-07T00:53:15;11.05;;;3.85;;
66567;SDS011;53422;49.296;6.900;2022-12-07T00:55:41;7.25;;;3.60;;
66567;SDS011;53422;49.296;6.900;2022-12-07T00:58:07;9.38;;;3.70;;
66567;SDS011;53422;49.296;6.900;2022-12-07T01:00:34;9.18;;;3.33;;
66567;SDS011;53422;49.296;6.900;2022-12-07T01:03:01;6.82;;;3.25;;
66567;SDS011;53422;49.296;6.900;2022-12-07T01:05:27;9.95;;;3.20;;
66567;SDS011;53422;49.296;6.900;2022-12-07T01:07:52;8.07;;;3.42;;
66567;SDS011;53422;49.296;6.900;2022-12-07T01:10:18;11.07;;;4.50;;
66567;SDS011;53422;49.296;6.900;2022-12-07T01:12:44;9.07;;;4.22;;
66567;SDS011;53422;49.296;6.900;2022-12-07T01:15:09;9.73;;;4.35;;
66567;SDS011;53422;49.296;6.900;2022-12-07T01:17:35;8.18;;;3.70;;
66567;SDS011;53422;49.296;6.900;2022-12-07T01:20:01;9.77;;;3.90;;
66567;SDS011;53422;49.296;6.900;2022-12-07T01:22:28;9.95;;;4.32;;
66567;SDS011;53422;49.296;6.900;2022-12-07T01:24:53;10.13;;;4.15;;
66567;SDS011;53422;49.296;6.900;2022-12-07T01:27:19;9.48;;;3.63;;
66567;SDS011;53422;49.296;6.900;2022-12-07T01:29:45;9.40;;;3.38;;
66567;SDS011;53422;49.296;6.900;2022-12-07T01:32:10;8.38;;;3.40;;
66567;SDS011;53422;49.296;6.900;2022-12-07T01:34:36;9.32;;;3.53;;
66567;SDS011;53422;49.296;6.900;2022-12-07T01:37:01;7.00;;;2.90;;
66567;SDS011;53422;49.296;6.900;2022-12-07T01:39:27;6.97;;;2.83;;
66567;SDS011;53422;49.296;6.900;2022-12-07T01:41:53;10.55;;;4.03;;
66567;SDS011;53422;49.296;6.900;2022-12-07T01:44:26;13.13;;;4.70;;
66567;SDS011;53422;49.296;6.900;2022-12-07T01:47:02;8.52;;;3.30;;
66567;SDS011;53422;49.296;6.900;2022-12-07T01:49:39;10.55;;;3.70;;
66567;SDS011;53422;49.296;6.900;2022-12-07T01:52:15;5.35;;;2.85;;
66567;SDS011;53422;49.296;6.900;2022-12-07T01:54:47;9.25;;;3.55;;
66567;SDS011;53422;49.296;6.900;2022-12-07T01:57:16;8.55;;;3.72;;
66567;SDS011;53422;49.296;6.900;2022-12-07T01:59:43;10.40;;;3.72;;
66567;SDS011;53422;49.296;6.900;2022-12-07T02:02:11;9.13;;;3.47;;
66567;SDS011;53422;49.296;6.900;2022-12-07T02:04:43;9.00;;;3.95;;
66567;SDS011;53422;49.296;6.900;2022-12-07T02:07:09;10.48;;;2.90;;
66567;SDS011;53422;49.296;6.900;2022-12-07T02:09:35;10.70;;;4.22;;
66567;SDS011;53422;49.296;6.900;2022-12-07T02:12:01;9.43;;;3.75;;
66567;SDS011;53422;49.296;6.900;2022-12-07T02:14:27;12.07;;;4.05;;
66567;SDS011;53422;49.296;6.900;2022-12-07T02:17:03;7.90;;;4.03;;
66567;SDS011;53422;49.296;6.900;2022-12-07T02:24:54;7.53;;;3.83;;
66567;SDS011;53422;49.296;6.900;2022-12-07T02:27:47;6.72;;;3.10;;
66567;SDS011;53422;49.296;6.900;2022-12-07T02:30:21;8.70;;;3.80;;
66567;SDS011;53422;49.296;6.900;2022-12-07T02:32:59;7.22;;;3.40;;
66567;SDS011;53422;49.296;6.900;2022-12-07T02:35:28;9.75;;;3.53;;
66567;SDS011;53422;49.296;6.900;2022-12-07T02:38:03;8.25;;;3.47;;
66567;SDS011;53422;49.296;6.900;2022-12-07T02:40:41;6.85;;;2.90;;
66567;SDS011;53422;49.296;6.900;2022-12-07T02:43:17;8.82;;;3.28;;
66567;SDS011;53422;49.296;6.900;2022-12-07T02:45:52;10.80;;;3.75;;
66567;SDS011;53422;49.296;6.900;2022-12-07T02:48:20;8.57;;;4.00;;
66567;SDS011;53422;49.296;6.900;2022-12-07T02:50:48;10.10;;;4.03;;
66567;SDS011;53422;49.296;6.900;2022-12-07T02:53:31;7.95;;;3.28;;
66567;SDS011;53422;49.296;6.900;2022-12-07T02:56:13;8.55;;;3.25;;
66567;SDS011;53422;49.296;6.900;2022-12-07T03:06:57;8.45;;;3.00;;
66567;SDS011;53422;49.296;6.900;2022-12-07T03:12:17;8.60;;;3.38;;
66567;SDS011;53422;49.296;6.900;2022-12-07T03:14:48;12.75;;;4.03;;
66567;SDS011;53422;49.296;6.900;2022-12-07T03:17:21;7.78;;;4.07;;
66567;SDS011;53422;49.296;6.900;2022-12-07T03:19:51;10.20;;;3.85;;
66567;SDS011;53422;49.296;6.900;2022-12-07T03:22:21;9.95;;;3.58;;
66567;SDS011;53422;49.296;6.900;2022-12-07T03:24:51;11.30;;;4.18;;
66567;SDS011;53422;49.296;6.900;2022-12-07T03:27:21;10.23;;;3.58;;
66567;SDS011;53422;49.296;6.900;2022-12-07T03:30:06;8.82;;;3.45;;
66567;SDS011;53422;49.296;6.900;2022-12-07T03:35:34;8.98;;;3.67;;
66567;SDS011;53422;49.296;6.900;2022-12-07T03:38:23;9.65;;;3.58;;
66567;SDS011;53422;49.296;6.900;2022-12-07T03:40:59;9.73;;;3.47;;
66567;SDS011;53422;49.296;6.900;2022-12-07T03:43:29;9.75;;;3.38;;
66567;SDS011;53422;49.296;6.900;2022-12-07T03:49:12;7.82;;;3.42;;
66567;SDS011;53422;49.296;6.900;2022-12-07T03:57:26;9.98;;;3.70;;
66567;SDS011;53422;49.296;6.900;2022-12-07T03:59:54;12.60;;;4.50;;
66567;SDS011;53422;49.296;6.900;2022-12-07T04:02:21;11.65;;;4.22;;
66567;SDS011;53422;49.296;6.900;2022-12-07T04:04:48;8.50;;;3.53;;
66567;SDS011;53422;49.296;6.900;2022-12-07T04:07:14;9.93;;;4.03;;
66567;SDS011;53422;49.296;6.900;2022-12-07T04:09:40;9.57;;;3.63;;
66567;SDS011;53422;49.296;6.900;2022-12-07T04:12:05;11.70;;;3.72;;
66567;SDS011;53422;49.296;6.900;2022-12-07T04:14:31;13.07;;;4.00;;
66567;SDS011;53422;49.296;6.900;2022-12-07T04:16:57;8.05;;;3.65;;
66567;SDS011;53422;49.296;6.900;2022-12-07T04:19:25;12.23;;;3.45;;
66567;SDS011;53422;49.296;6.900;2022-12-07T04:24:18;5.88;;;2.65;;
66567;SDS011;53422;49.296;6.900;2022-12-07T04:26:44;10.23;;;3.45;;
66567;SDS011;53422;49.296;6.900;2022-12-07T04:29:10;11.75;;;3.92;;
66567;SDS011;53422;49.296;6.900;2022-12-07T04:31:37;8.50;;;3.25;;
66567;SDS011;53422;49.296;6.900;2022-12-07T04:34:03;7.65;;;3.47;;
66567;SDS011;53422;49.296;6.900;2022-12-07T04:36:29;13.23;;;3.90;;
66567;SDS011;53422;49.296;6.900;2022-12-07T04:38:55;11.70;;;3.10;;
66567;SDS011;53422;49.296;6.900;2022-12-07T04:41:21;10.73;;;3.67;;
66567;SDS011;53422;49.296;6.900;2022-12-07T04:43:55;10.00;;;3.83;;
66567;SDS011;53422;49.296;6.900;2022-12-07T04:46:22;9.88;;;3.35;;
66567;SDS011;53422;49.296;6.900;2022-12-07T04:48:49;8.27;;;2.95;;
66567;SDS011;53422;49.296;6.900;2022-12-07T04:51:19;8.48;;;3.47;;
66567;SDS011;53422;49.296;6.900;2022-12-07T04:53:47;13.70;;;3.92;;
66567;SDS011;53422;49.296;6.900;2022-12-07T04:56:13;10.75;;;3.42;;
66567;SDS011;53422;49.296;6.900;2022-12-07T04:58:40;11.15;;;4.15;;
66567;SDS011;53422;49.296;6.900;2022-12-07T05:01:06;11.43;;;3.90;;
66567;SDS011;53422;49.296;6.900;2022-12-07T05:03:32;11.23;;;4.03;;
66567;SDS011;53422;49.296;6.900;2022-12-07T05:05:58;11.57;;;3.80;;
66567;SDS011;53422;49.296;6.900;2022-12-07T05:08:23;8.85;;;3.42;;
66567;SDS011;53422;49.296;6.900;2022-12-07T05:10:49;10.23;;;4.20;;
66567;SDS011;53422;49.296;6.900;2022-12-07T05:13:15;9.35;;;2.97;;
66567;SDS011;53422;49.296;6.900;2022-12-07T05:15:40;10.98;;;3.88;;
66567;SDS011;53422;49.296;6.900;2022-12-07T05:18:08;9.82;;;3.45;;
66567;SDS011;53422;49.296;6.900;2022-12-07T05:20:35;10.88;;;4.00;;
66567;SDS011;53422;49.296;6.900;2022-12-07T05:23:00;12.60;;;3.72;;
66567;SDS011;53422;49.296;6.900;2022-12-07T05:25:26;11.00;;;4.50;;
66567;SDS011;53422;49.296;6.900;2022-12-07T05:27:52;8.52;;;4.07;;
66567;SDS011;53422;49.296;6.900;2022-12-07T05:30:17;11.65;;;3.65;;
66567;SDS011;53422;49.296;6.900;2022-12-07T05:32:43;14.73;;;4.22;;
66567;SDS011;53422;49.296;6.900;2022-12-07T05:35:09;13.98;;;4.18;;
66567;SDS011;53422;49.296;6.900;2022-12-07T05:37:35;8.05;;;3.40;;
66567;SDS011;53422;49.296;6.900;2022-12-07T05:40:00;9.25;;;4.38;;
66567;SDS011;53422;49.296;6.900;2022-12-07T05:42:26;9.80;;;3.85;;
66567;SDS011;53422;49.296;6.900;2022-12-07T05:44:51;9.60;;;4.10;;
66567;SDS011;53422;49.296;6.900;2022-12-07T05:47:17;11.00;;;4.35;;
66567;SDS011;53422;49.296;6.900;2022-12-07T05:49:42;9.25;;;4.10;;
66567;SDS011;53422;49.296;6.900;2022-12-07T05:52:08;13.10;;;4.63;;
66567;SDS011;53422;49.296;6.900;2022-12-07T05:54:34;11.95;;;4.00;;
66567;SDS011;53422;49.296;6.900;2022-12-07T05:56:59;12.05;;;4.47;;
66567;SDS011;53422;49.296;6.900;2022-12-07T05:59:25;12.43;;;4.10;;
66567;SDS011;53422;49.296;6.900;2022-12-07T06:01:54;10.48;;;4.38;;
66567;SDS011;53422;49.296;6.900;2022-12-07T06:04:23;13.70;;;4.45;;
66567;SDS011;53422;49.296;6.900;2022-12-07T06:06:50;11.02;;;4.32;;
66567;SDS011;53422;49.296;6.900;2022-12-07T06:09:16;12.00;;;5.10;;
66567;SDS011;53422;49.296;6.900;2022-12-07T06:11:45;13.45;;;4.65;;
66567;SDS011;53422;49.296;6.900;2022-12-07T06:14:30;10.60;;;4.05;;
66567;SDS011;53422;49.296;6.900;2022-12-07T06:16:56;10.88;;;4.07;;
66567;SDS011;53422;49.296;6.900;2022-12-07T06:19:21;9.95;;;4.18;;
66567;SDS011;53422;49.296;6.900;2022-12-07T06:21:47;12.50;;;4.78;;
66567;SDS011;53422;49.296;6.900;2022-12-07T06:24:13;17.33;;;5.15;;
66567;SDS011;53422;49.296;6.900;2022-12-07T06:26:40;12.48;;;4.72;;
66567;SDS011;53422;49.296;6.900;2022-12-07T06:29:06;14.57;;;5.28;;
66567;SDS011;53422;49.296;6.900;2022-12-07T06:31:32;11.90;;;4.68;;
66567;SDS011;53422;49.296;6.900;2022-12-07T06:34:02;16.48;;;4.65;;
66567;SDS011;53422;49.296;6.900;2022-12-07T06:36:29;15.80;;;5.00;;
66567;SDS011;53422;49.296;6.900;2022-12-07T06:38:55;13.93;;;5.03;;
66567;SDS011;53422;49.296;6.900;2022-12-07T06:41:21;13.73;;;4.78;;
66567;SDS011;53422;49.296;6.900;2022-12-07T06:43:47;13.75;;;5.88;;
66567;SDS011;53422;49.296;6.900;2022-12-07T06:46:13;13.43;;;5.78;;
66567;SDS011;53422;49.296;6.900;2022-12-07T06:48:39;14.68;;;5.30;;
66567;SDS011;53422;49.296;6.900;2022-12-07T06:51:05;12.55;;;4.82;;
66567;SDS011;53422;49.296;6.900;2022-12-07T06:53:31;12.05;;;4.43;;
66567;SDS011;53422;49.296;6.900;2022-12-07T06:55:57;14.48;;;5.25;;
66567;SDS011;53422;49.296;6.900;2022-12-07T06:58:22;15.52;;;5.43;;
66567;SDS011;53422;49.296;6.900;2022-12-07T07:00:48;13.00;;;5.03;;
66567;SDS011;53422;49.296;6.900;2022-12-07T07:03:15;10.95;;;4.15;;
66567;SDS011;53422;49.296;6.900;2022-12-07T07:05:41;16.15;;;5.15;;
66567;SDS011;53422;49.296;6.900;2022-12-07T07:08:07;13.55;;;5.30;;
66567;SDS011;53422;49.296;6.900;2022-12-07T07:10:33;15.02;;;5.22;;
66567;SDS011;53422;49.296;6.900;2022-12-07T07:12:59;15.90;;;5.75;;
66567;SDS011;53422;49.296;6.900;2022-12-07T07:15:24;17.23;;;6.15;;
66567;SDS011;53422;49.296;6.900;2022-12-07T07:17:54;14.75;;;5.00;;
66567;SDS011;53422;49.296;6.900;2022-12-07T07:20:19;10.93;;;4.38;;
66567;SDS011;53422;49.296;6.900;2022-12-07T07:22:45;15.68;;;5.60;;
66567;SDS011;53422;49.296;6.900;2022-12-07T07:25:11;15.95;;;5.30;;
66567;SDS011;53422;49.296;6.900;2022-12-07T07:27:36;15.20;;;5.18;;
66567;SDS011;53422;49.296;6.900;2022-12-07T07:30:03;13.65;;;5.57;;
66567;SDS011;53422;49.296;6.900;2022-12-07T07:32:29;14.15;;;5.47;;
66567;SDS011;53422;49.296;6.900;2022-12-07T07:34:56;13.18;;;5.45;;
66567;SDS011;53422;49.296;6.900;2022-12-07T07:37:21;13.65;;;5.80;;
66567;SDS011;53422;49.296;6.900;2022-12-07T07:39:48;15.00;;;5.07;;
66567;SDS011;53422;49.296;6.900;2022-12-07T07:42:14;14.23;;;5.20;;
66567;SDS011;53422;49.296;6.900;2022-12-07T07:44:40;14.85;;;5.03;;
66567;SDS011;53422;49.296;6.900;2022-12-07T07:47:05;14.15;;;4.80;;
66567;SDS011;53422;49.296;6.900;2022-12-07T07:49:31;13.40;;;5.40;;
66567;SDS011;53422;49.296;6.900;2022-12-07T07:51:57;17.35;;;4.75;;
66567;SDS011;53422;49.296;6.900;2022-12-07T07:54:23;13.95;;;4.80;;
66567;SDS011;53422;49.296;6.900;2022-12-07T07:56:49;14.77;;;5.13;;
66567;SDS011;53422;49.296;6.900;2022-12-07T07:59:15;15.95;;;5.13;;
66567;SDS011;53422;49.296;6.900;2022-12-07T08:01:41;15.77;;;5.80;;
66567;SDS011;53422;49.296;6.900;2022-12-07T08:04:07;16.15;;;5.15;;
66567;SDS011;53422;49.296;6.900;2022-12-07T08:06:32;19.02;;;6.53;;
66567;SDS011;53422;49.296;6.900;2022-12-07T08:08:58;14.60;;;5.43;;
66567;SDS011;53422;49.296;6.900;2022-12-07T08:11:24;16.85;;;6.03;;
66567;SDS011;53422;49.296;6.900;2022-12-07T08:13:49;17.13;;;6.55;;
66567;SDS011;53422;49.296;6.900;2022-12-07T08:16:15;17.27;;;6.70;;
66567;SDS011;53422;49.296;6.900;2022-12-07T08:18:42;16.25;;;6.00;;
66567;SDS011;53422;49.296;6.900;2022-12-07T08:21:09;15.88;;;5.32;;
66567;SDS011;53422;49.296;6.900;2022-12-07T08:23:37;16.02;;;6.07;;
66567;SDS011;53422;49.296;6.900;2022-12-07T08:26:04;18.92;;;6.55;;
66567;SDS011;53422;49.296;6.900;2022-12-07T08:28:31;16.05;;;6.18;;
66567;SDS011;53422;49.296;6.900;2022-12-07T08:31:01;20.05;;;6.68;;
66567;SDS011;53422;49.296;6.900;2022-12-07T08:33:27;17.30;;;6.25;;
66567;SDS011;53422;49.296;6.900;2022-12-07T08:35:53;18.98;;;6.80;;
66567;SDS011;53422;49.296;6.900;2022-12-07T08:38:19;18.92;;;5.72;;
66567;SDS011;53422;49.296;6.900;2022-12-07T08:40:44;23.08;;;5.95;;
66567;SDS011;53422;49.296;6.900;2022-12-07T08:43:10;24.00;;;6.78;;
66567;SDS011;53422;49.296;6.900;2022-12-07T08:45:36;18.95;;;5.80;;
66567;SDS011;53422;49.296;6.900;2022-12-07T08:48:08;22.38;;;6.82;;
66567;SDS011;53422;49.296;6.900;2022-12-07T08:50:38;16.65;;;5.93;;
66567;SDS011;53422;49.296;6.900;2022-12-07T08:53:04;19.60;;;6.60;;
66567;SDS011;53422;49.296;6.900;2022-12-07T08:55:31;16.55;;;6.05;;
66567;SDS011;53422;49.296;6.900;2022-12-07T08:57:58;20.10;;;7.30;;
66567;SDS011;53422;49.296;6.900;2022-12-07T09:00:24;15.73;;;6.22;;
66567;SDS011;53422;49.296;6.900;2022-12-07T09:02:51;20.95;;;7.50;;
66567;SDS011;53422;49.296;6.900;2022-12-07T09:05:18;17.17;;;6.07;;
66567;SDS011;53422;49.296;6.900;2022-12-07T09:07:44;19.08;;;6.07;;
66567;SDS011;53422;49.296;6.900;2022-12-07T09:10:14;18.17;;;6.97;;
66567;SDS011;53422;49.296;6.900;2022-12-07T09:12:40;18.60;;;6.88;;
66567;SDS011;53422;49.296;6.900;2022-12-07T09:15:06;17.23;;;6.28;;
66567;SDS011;53422;49.296;6.900;2022-12-07T09:17:33;20.55;;;7.38;;
66567;SDS011;53422;49.296;6.900;2022-12-07T09:19:59;23.13;;;6.65;;
66567;SDS011;53422;49.296;6.900;2022-12-07T09:22:29;22.25;;;8.55;;
66567;SDS011;53422;49.296;6.900;2022-12-07T09:24:56;21.95;;;7.15;;
66567;SDS011;53422;49.296;6.900;2022-12-07T09:27:22;23.88;;;6.90;;
66567;SDS011;53422;49.296;6.900;2022-12-07T09:29:48;15.90;;;6.05;;
66567;SDS011;53422;49.296;6.900;2022-12-07T09:32:13;18.25;;;6.45;;
66567;SDS011;53422;49.296;6.900;2022-12-07T09:34:39;20.10;;;6.95;;
66567;SDS011;53422;49.296;6.900;2022-12-07T09:37:04;21.60;;;6.90;;
66567;SDS011;53422;49.296;6.900;2022-12-07T09:39:31;22.13;;;7.38;;
66567;SDS011;53422;49.296;6.900;2022-12-07T09:41:57;18.30;;;5.93;;
66567;SDS011;53422;49.296;6.900;2022-12-07T09:44:25;19.52;;;6.30;;
66567;SDS011;53422;49.296;6.900;2022-12-07T09:46:52;19.00;;;6.63;;
66567;SDS011;53422;49.296;6.900;2022-12-07T09:49:19;18.05;;;6.75;;
66567;SDS011;53422;49.296;6.900;2022-12-07T09:51:47;22.55;;;6.82;;
66567;SDS011;53422;49.296;6.900;2022-12-07T09:54:14;20.52;;;6.50;;
66567;SDS011;53422;49.296;6.900;2022-12-07T09:56:41;24.02;;;7.15;;
66567;SDS011;53422;49.296;6.900;2022-12-07T09:59:13;21.25;;;7.57;;
66567;SDS011;53422;49.296;6.900;2022-12-07T10:01:43;22.10;;;7.22;;
66567;SDS011;53422;49.296;6.900;2022-12-07T10:06:43;19.20;;;6.32;;
66567;SDS011;53422;49.296;6.900;2022-12-07T10:09:10;21.30;;;6.68;;
66567;SDS011;53422;49.296;6.900;2022-12-07T10:12:25;18.92;;;6.60;;
66567;SDS011;53422;49.296;6.900;2022-12-07T10:14:40;20.58;;;6.90;;
66567;SDS011;53422;49.296;6.900;2022-12-07T10:17:29;19.08;;;5.97;;
66567;SDS011;53422;49.296;6.900;2022-12-07T10:22:53;16.17;;;5.72;;
66567;SDS011;53422;49.296;6.900;2022-12-07T10:25:20;17.00;;;5.75;;
66567;SDS011;53422;49.296;6.900;2022-12-07T10:27:58;13.68;;;5.30;;
66567;SDS011;53422;49.296;6.900;2022-12-07T10:30:29;16.63;;;5.82;;
66567;SDS011;53422;49.296;6.900;2022-12-07T10:32:56;17.23;;;6.38;;
66567;SDS011;53422;49.296;6.900;2022-12-07T10:37:53;17.80;;;7.28;;
66567;SDS011;53422;49.296;6.900;2022-12-07T10:40:33;15.00;;;5.45;;
66567;SDS011;53422;49.296;6.900;2022-12-07T10:43:01;16.55;;;5.63;;
66567;SDS011;53422;49.296;6.900;2022-12-07T10:48:29;14.32;;;4.97;;
66567;SDS011;53422;49.296;6.900;2022-12-07T10:51:21;14.07;;;4.10;;
66567;SDS011;53422;49.296;6.900;2022-12-07T10:54:12;12.98;;;4.88;;
66567;SDS011;53422;49.296;6.900;2022-12-07T11:02:14;17.15;;;5.90;;
66567;SDS011;53422;49.296;6.900;2022-12-07T11:07:52;14.35;;;5.07;;
66567;SDS011;53422;49.296;6.900;2022-12-07T11:21:17;13.30;;;5.90;;
66567;SDS011;53422;49.296;6.900;2022-12-07T11:32:07;10.85;;;4.10;;
66567;SDS011;53422;49.296;6.900;2022-12-07T11:34:54;10.30;;;4.07;;
66567;SDS011;53422;49.296;6.900;2022-12-07T11:37:34;8.07;;;3.50;;
66567;SDS011;53422;49.296;6.900;2022-12-07T11:42:48;9.20;;;4.00;;
66567;SDS011;53422;49.296;6.900;2022-12-07T11:45:26;11.35;;;3.95;;
66567;SDS011;53422;49.296;6.900;2022-12-07T11:55:50;10.90;;;4.32;;
66567;SDS011;53422;49.296;6.900;2022-12-07T11:58:38;16.15;;;4.88;;
66567;SDS011;53422;49.296;6.900;2022-12-07T12:06:37;13.85;;;4.97;;
66567;SDS011;53422;49.296;6.900;2022-12-07T12:11:44;10.38;;;3.90;;
66567;SDS011;53422;49.296;6.900;2022-12-07T12:19:36;10.02;;;3.67;;
66567;SDS011;53422;49.296;6.900;2022-12-07T12:22:27;12.13;;;3.42;;
66567;SDS011;53422;49.296;6.900;2022-12-07T12:25:15;7.22;;;2.83;;
66567;SDS011;53422;49.296;6.900;2022-12-07T12:27:55;7.70;;;2.47;;
66567;SDS011;53422;49.296;6.900;2022-12-07T12:33:12;7.18;;;2.97;;
66567;SDS011;53422;49.296;6.900;2022-12-07T12:35:50;7.22;;;2.88;;
66567;SDS011;53422;49.296;6.900;2022-12-07T12:39:12;8.13;;;2.53;;
66567;SDS011;53422;49.296;6.900;2022-12-07T12:51:47;8.43;;;3.47;;
66567;SDS011;53422;49.296;6.900;2022-12-07T12:57:00;9.70;;;3.10;;
66567;SDS011;53422;49.296;6.900;2022-12-07T13:02:24;9.40;;;2.88;;
66567;SDS011;53422;49.296;6.900;2022-12-07T13:04:57;6.25;;;2.83;;
66567;SDS011;53422;49.296;6.900;2022-12-07T13:18:02;8.32;;;2.75;;
66567;SDS011;53422;49.296;6.900;2022-12-07T13:28:50;7.88;;;3.30;;
66567;SDS011;53422;49.296;6.900;2022-12-07T13:34:26;8.98;;;3.25;;
66567;SDS011;53422;49.296;6.900;2022-12-07T13:39:32;8.95;;;2.83;;
66567;SDS011;53422;49.296;6.900;2022-12-07T13:41:59;7.35;;;2.53;;
66567;SDS011;53422;49.296;6.900;2022-12-07T13:44:39;7.97;;;2.92;;
66567;SDS011;53422;49.296;6.900;2022-12-07T13:47:16;6.72;;;2.78;;
66567;SDS011;53422;49.296;6.900;2022-12-07T13:50:23;8.02;;;2.97;;
66567;SDS011;53422;49.296;6.900;2022-12-07T13:52:49;8.70;;;3.50;;
66567;SDS011;53422;49.296;6.900;2022-12-07T13:55:15;9.82;;;3.42;;
66567;SDS011;53422;49.296;6.900;2022-12-07T13:57:44;8.27;;;3.55;;
66567;SDS011;53422;49.296;6.900;2022-12-07T14:00:20;12.23;;;4.30;;
66567;SDS011;53422;49.296;6.900;2022-12-07T14:02:58;21.33;;;5.57;;
66567;SDS011;53422;49.296;6.900;2022-12-07T14:05:36;11.27;;;4.03;;
66567;SDS011;53422;49.296;6.900;2022-12-07T14:15:56;10.02;;;3.47;;
66567;SDS011;53422;49.296;6.900;2022-12-07T14:18:30;10.45;;;3.28;;
66567;SDS011;53422;49.296;6.900;2022-12-07T14:21:24;9.00;;;3.03;;
66567;SDS011;53422;49.296;6.900;2022-12-07T14:26:34;9.57;;;4.10;;
66567;SDS011;53422;49.296;6.900;2022-12-07T14:31:50;7.57;;;3.53;;
66567;SDS011;53422;49.296;6.900;2022-12-07T14:34:19;8.25;;;3.03;;
66567;SDS011;53422;49.296;6.900;2022-12-07T14:39:11;8.88;;;2.83;;
66567;SDS011;53422;49.296;6.900;2022-12-07T14:41:37;7.70;;;2.95;;
66567;SDS011;53422;49.296;6.900;2022-12-07T14:44:27;7.57;;;2.97;;
66567;SDS011;53422;49.296;6.900;2022-12-07T14:46:53;7.70;;;3.03;;
66567;SDS011;53422;49.296;6.900;2022-12-07T14:49:19;7.82;;;3.58;;
66567;SDS011;53422;49.296;6.900;2022-12-07T14:51:46;10.30;;;3.30;;
66567;SDS011;53422;49.296;6.900;2022-12-07T14:54:16;10.50;;;3.40;;
66567;SDS011;53422;49.296;6.900;2022-12-07T14:56:44;8.68;;;3.53;;
66567;SDS011;53422;49.296;6.900;2022-12-07T14:59:10;7.45;;;3.17;;
66567;SDS011;53422;49.296;6.900;2022-12-07T15:01:37;8.82;;;3.60;;
66567;SDS011;53422;49.296;6.900;2022-12-07T15:04:03;8.52;;;3.70;;
66567;SDS011;53422;49.296;6.900;2022-12-07T15:06:28;6.50;;;2.70;;
66567;SDS011;53422;49.296;6.900;2022-12-07T15:08:54;7.25;;;2.88;;
66567;SDS011;53422;49.296;6.900;2022-12-07T15:11:20;13.38;;;4.97;;
66567;SDS011;53422;49.296;6.900;2022-12-07T15:13:46;12.63;;;4.60;;
66567;SDS011;53422;49.296;6.900;2022-12-07T15:16:30;11.18;;;4.97;;
66567;SDS011;53422;49.296;6.900;2022-12-07T15:18:56;8.88;;;3.47;;
66567;SDS011;53422;49.296;6.900;2022-12-07T15:21:21;12.38;;;4.95;;
66567;SDS011;53422;49.296;6.900;2022-12-07T15:23:47;10.02;;;3.72;;
66567;SDS011;53422;49.296;6.900;2022-12-07T15:26:13;9.23;;;3.42;;
66567;SDS011;53422;49.296;6.900;2022-12-07T15:28:39;6.45;;;2.78;;
66567;SDS011;53422;49.296;6.900;2022-12-07T15:31:15;7.57;;;3.17;;
66567;SDS011;53422;49.296;6.900;2022-12-07T15:33:42;6.85;;;3.42;;
66567;SDS011;53422;49.296;6.900;2022-12-07T15:36:09;6.18;;;2.97;;
66567;SDS011;53422;49.296;6.900;2022-12-07T15:38:47;6.53;;;3.15;;
66567;SDS011;53422;49.296;6.900;2022-12-07T15:41:13;9.10;;;3.13;;
66567;SDS011;53422;49.296;6.900;2022-12-07T15:43:39;8.18;;;3.10;;
66567;SDS011;53422;49.296;6.900;2022-12-07T15:46:23;11.05;;;4.13;;
66567;SDS011;53422;49.296;6.900;2022-12-07T15:48:49;8.27;;;3.08;;
66567;SDS011;53422;49.296;6.900;2022-12-07T15:51:14;6.15;;;2.72;;
66567;SDS011;53422;49.296;6.900;2022-12-07T15:53:40;9.35;;;3.00;;
66567;SDS011;53422;49.296;6.900;2022-12-07T15:56:06;7.63;;;3.25;;
66567;SDS011;53422;49.296;6.900;2022-12-07T15:58:32;8.27;;;3.67;;
66567;SDS011;53422;49.296;6.900;2022-12-07T16:00:58;9.82;;;2.95;;
66567;SDS011;53422;49.296;6.900;2022-12-07T16:03:24;6.13;;;2.80;;
66567;SDS011;53422;49.296;6.900;2022-12-07T16:05:50;8.02;;;3.17;;
66567;SDS011;53422;49.296;6.900;2022-12-07T16:08:18;5.68;;;2.60;;
66567;SDS011;53422;49.296;6.900;2022-12-07T16:10:43;8.48;;;3.13;;
66567;SDS011;53422;49.296;6.900;2022-12-07T16:13:09;10.95;;;3.25;;
66567;SDS011;53422;49.296;6.900;2022-12-07T16:15:39;8.85;;;2.63;;
66567;SDS011;53422;49.296;6.900;2022-12-07T16:18:05;8.55;;;3.30;;
66567;SDS011;53422;49.296;6.900;2022-12-07T16:20:31;8.88;;;3.13;;
66567;SDS011;53422;49.296;6.900;2022-12-07T16:22:56;7.55;;;2.90;;
66567;SDS011;53422;49.296;6.900;2022-12-07T16:25:22;8.85;;;2.95;;
66567;SDS011;53422;49.296;6.900;2022-12-07T16:27:48;10.38;;;3.28;;
66567;SDS011;53422;49.296;6.900;2022-12-07T16:30:14;5.40;;;2.60;;
66567;SDS011;53422;49.296;6.900;2022-12-07T16:32:41;7.53;;;3.00;;
66567;SDS011;53422;49.296;6.900;2022-12-07T16:35:07;10.35;;;3.13;;
66567;SDS011;53422;49.296;6.900;2022-12-07T16:37:33;11.93;;;4.35;;
66567;SDS011;53422;49.296;6.900;2022-12-07T16:39:58;12.63;;;4.18;;
66567;SDS011;53422;49.296;6.900;2022-12-07T16:42:24;8.32;;;3.50;;
66567;SDS011;53422;49.296;6.900;2022-12-07T16:44:50;9.00;;;3.22;;
66567;SDS011;53422;49.296;6.900;2022-12-07T16:47:16;7.63;;;3.67;;
66567;SDS011;53422;49.296;6.900;2022-12-07T16:49:42;11.52;;;3.75;;
66567;SDS011;53422;49.296;6.900;2022-12-07T16:52:08;7.75;;;3.50;;
66567;SDS011;53422;49.296;6.900;2022-12-07T16:54:33;10.10;;;3.17;;
66567;SDS011;53422;49.296;6.900;2022-12-07T16:56:59;9.57;;;3.78;;
66567;SDS011;53422;49.296;6.900;2022-12-07T16:59:25;7.63;;;4.35;;
66567;SDS011;53422;49.296;6.900;2022-12-07T17:01:50;9.40;;;3.58;;
66567;SDS011;53422;49.296;6.900;2022-12-07T17:04:19;10.35;;;4.38;;
66567;SDS011;53422;49.296;6.900;2022-12-07T17:06:45;10.10;;;4.40;;
66567;SDS011;53422;49.296;6.900;2022-12-07T17:09:10;12.05;;;4.90;;
66567;SDS011;53422;49.296;6.900;2022-12-07T17:11:37;10.35;;;3.80;;
66567;SDS011;53422;49.296;6.900;2022-12-07T17:14:03;10.57;;;3.67;;
66567;SDS011;53422;49.296;6.900;2022-12-07T17:16:47;10.07;;;3.72;;
66567;SDS011;53422;49.296;6.900;2022-12-07T17:19:14;9.88;;;4.10;;
66567;SDS011;53422;49.296;6.900;2022-12-07T17:21:41;12.40;;;4.85;;
66567;SDS011;53422;49.296;6.900;2022-12-07T17:24:08;14.05;;;5.05;;